sensor_id;sensor_type;location;lat;lon;timestamp;temperature;humidity
59067;DHT22;44854;50.838;4.438;2024-01-10T05:46:30;-3.30;99.90
59067;DHT22;44854;50.838;4.438;2024-01-10T05:48:56;-3.20;99.90
59067;DHT22;44854;50.838;4.438;2024-01-10T05:51:22;-3.20;99.90
59067;DHT22;44854;50.838;4.438;2024-01-10T05:53:48;-3.30;99.90
59067;DHT22;44854;50.838;4.438;2024-01-10T05:56:14;-3.20;99.90
59067;DHT22;44854;50.838;4.438;2024-01-10T05:58:40;-3.30;99.90
59067;DHT22;44854;50.838;4.438;2024-01-10T06:01:06;-3.20;99.90
59067;DHT22;44854;50.838;4.438;2024-01-10T06:03:35;-3.30;99.90
59067;DHT22;44854;50.838;4.438;2024-01-10T06:06:05;-3.20;99.90
59067;DHT22;44854;50.838;4.438;2024-01-10T06:08:31;-3.20;99.90
59067;DHT22;44854;50.838;4.438;2024-01-10T06:10:57;-3.20;99.90
59067;DHT22;44854;50.838;4.438;2024-01-10T06:13:23;-2.90;99.90
59067;DHT22;44854;50.838;4.438;2024-01-10T06:15:49;-3.10;99.90
59067;DHT22;44854;50.838;4.438;2024-01-10T06:18:15;-3.10;99.90
59067;DHT22;44854;50.838;4.438;2024-01-10T06:20:41;-3.20;99.90
59067;DHT22;44854;50.838;4.438;2024-01-10T06:23:07;-3.20;99.90
59067;DHT22;44854;50.838;4.438;2024-01-10T06:25:39;-3.20;99.90
59067;DHT22;44854;50.838;4.438;2024-01-10T06:28:05;-3.20;99.90
59067;DHT22;44854;50.838;4.438;2024-01-10T06:30:31;-3.20;99.90
59067;DHT22;44854;50.838;4.438;2024-01-10T06:32:56;-3.20;99.90
59067;DHT22;44854;50.838;4.438;2024-01-10T06:35:25;-3.20;99.90
59067;DHT22;44854;50.838;4.438;2024-01-10T06:37:58;-3.10;99.90
59067;DHT22;44854;50.838;4.438;2024-01-10T06:40:24;-3.00;99.90
59067;DHT22;44854;50.838;4.438;2024-01-10T06:42:50;-3.00;99.90
59067;DHT22;44854;50.838;4.438;2024-01-10T06:45:18;-3.00;99.90
59067;DHT22;44854;50.838;4.438;2024-01-10T06:47:48;-3.10;99.90
59067;DHT22;44854;50.838;4.438;2024-01-10T06:50:14;-3.00;99.90
59067;DHT22;44854;50.838;4.438;2024-01-10T06:52:41;-3.10;99.90
59067;DHT22;44854;50.838;4.438;2024-01-10T06:55:07;-3.00;99.90
59067;DHT22;44854;50.838;4.438;2024-01-10T06:57:33;-3.10;99.90
59067;DHT22;44854;50.838;4.438;2024-01-10T06:59:59;-3.20;99.90
59067;DHT22;44854;50.838;4.438;2024-01-10T07:02:36;-3.10;99.90
59067;DHT22;44854;50.838;4.438;2024-01-10T07:05:03;-3.20;99.90
59067;DHT22;44854;50.838;4.438;2024-01-10T07:07:31;-3.10;99.90
59067;DHT22;44854;50.838;4.438;2024-01-10T07:09:59;-3.00;99.90
59067;DHT22;44854;50.838;4.438;2024-01-10T07:12:26;-3.10;99.90
59067;DHT22;44854;50.838;4.438;2024-01-10T07:14:51;-3.00;99.90
59067;DHT22;44854;50.838;4.438;2024-01-10T07:17:20;-3.10;99.90
59067;DHT22;44854;50.838;4.438;2024-01-10T07:19:48;-3.00;99.90
59067;DHT22;44854;50.838;4.438;2024-01-10T07:22:19;-2.90;99.90
59067;DHT22;44854;50.838;4.438;2024-01-10T07:24:54;-2.90;99.90
59067;DHT22;44854;50.838;4.438;2024-01-10T07:27:22;-3.00;99.90
59067;DHT22;44854;50.838;4.438;2024-01-10T07:29:48;-2.90;99.90
59067;DHT22;44854;50.838;4.438;2024-01-10T07:32:14;-2.80;99.90
59067;DHT22;44854;50.838;4.438;2024-01-10T07:34:43;-3.10;99.90
59067;DHT22;44854;50.838;4.438;2024-01-10T07:37:12;-3.20;99.90
59067;DHT22;44854;50.838;4.438;2024-01-10T07:39:38;-3.20;99.90
59067;DHT22;44854;50.838;4.438;2024-01-10T07:42:05;-3.20;99.90
59067;DHT22;44854;50.838;4.438;2024-01-10T07:44:34;-3.00;99.90
59067;DHT22;44854;50.838;4.438;2024-01-10T07:47:00;-3.00;99.90
59067;DHT22;44854;50.838;4.438;2024-01-10T07:49:27;-3.00;99.90
59067;DHT22;44854;50.838;4.438;2024-01-10T07:51:54;-2.90;99.90
59067;DHT22;44854;50.838;4.438;2024-01-10T07:54:20;-2.90;99.90
59067;DHT22;44854;50.838;4.438;2024-01-10T07:56:46;-2.80;99.90
59067;DHT22;44854;50.838;4.438;2024-01-10T07:59:11;-2.90;99.90
59067;DHT22;44854;50.838;4.438;2024-01-10T08:01:43;-3.00;99.90
59067;DHT22;44854;50.838;4.438;2024-01-10T08:04:10;-3.00;99.90
59067;DHT22;44854;50.838;4.438;2024-01-10T08:06:39;-3.10;99.90
59067;DHT22;44854;50.838;4.438;2024-01-10T08:09:05;-3.00;99.90
59067;DHT22;44854;50.838;4.438;2024-01-10T08:11:36;-2.90;99.90
59067;DHT22;44854;50.838;4.438;2024-01-10T08:14:02;-2.90;99.90
59067;DHT22;44854;50.838;4.438;2024-01-10T08:16:28;-2.90;99.90
59067;DHT22;44854;50.838;4.438;2024-01-10T08:18:54;-3.00;99.90
59067;DHT22;44854;50.838;4.438;2024-01-10T08:21:20;-3.00;99.90
59067;DHT22;44854;50.838;4.438;2024-01-10T08:23:46;-2.90;99.90
59067;DHT22;44854;50.838;4.438;2024-01-10T08:26:12;-2.80;99.90
59067;DHT22;44854;50.838;4.438;2024-01-10T08:28:38;-2.90;99.90
59067;DHT22;44854;50.838;4.438;2024-01-10T08:31:07;-2.80;99.90
59067;DHT22;44854;50.838;4.438;2024-01-10T08:33:33;-2.90;99.90
59067;DHT22;44854;50.838;4.438;2024-01-10T08:35:58;-3.00;99.90
59067;DHT22;44854;50.838;4.438;2024-01-10T08:38:27;-3.00;99.90
59067;DHT22;44854;50.838;4.438;2024-01-10T08:40:53;-2.90;99.90
59067;DHT22;44854;50.838;4.438;2024-01-10T08:43:18;-2.90;99.90
59067;DHT22;44854;50.838;4.438;2024-01-10T08:45:44;-2.90;99.90
59067;DHT22;44854;50.838;4.438;2024-01-10T08:48:39;-2.90;99.90
59067;DHT22;44854;50.838;4.438;2024-01-10T08:51:14;-2.80;99.90
59067;DHT22;44854;50.838;4.438;2024-01-10T08:53:45;-2.70;99.90
59067;DHT22;44854;50.838;4.438;2024-01-10T08:56:10;-2.60;99.90
59067;DHT22;44854;50.838;4.438;2024-01-10T08:58:40;-2.60;99.90
59067;DHT22;44854;50.838;4.438;2024-01-10T09:01:06;-2.60;99.90
59067;DHT22;44854;50.838;4.438;2024-01-10T09:03:34;-2.50;99.90
59067;DHT22;44854;50.838;4.438;2024-01-10T09:06:07;-2.50;99.90
59067;DHT22;44854;50.838;4.438;2024-01-10T09:08:37;-2.80;99.90
59067;DHT22;44854;50.838;4.438;2024-01-10T09:11:02;-2.80;99.90
59067;DHT22;44854;50.838;4.438;2024-01-10T09:13:28;-2.70;99.90
59067;DHT22;44854;50.838;4.438;2024-01-10T09:16:04;-2.60;99.90
59067;DHT22;44854;50.838;4.438;2024-01-10T09:18:30;-2.50;99.90
59067;DHT22;44854;50.838;4.438;2024-01-10T09:20:56;-2.50;99.90
59067;DHT22;44854;50.838;4.438;2024-01-10T09:23:25;-2.50;99.90
59067;DHT22;44854;50.838;4.438;2024-01-10T09:25:54;-2.50;99.90
59067;DHT22;44854;50.838;4.438;2024-01-10T09:28:20;-2.40;99.90
59067;DHT22;44854;50.838;4.438;2024-01-10T09:30:46;-2.30;99.90
59067;DHT22;44854;50.838;4.438;2024-01-10T09:33:13;-2.20;99.90
59067;DHT22;44854;50.838;4.438;2024-01-10T09:35:44;-1.90;99.90
59067;DHT22;44854;50.838;4.438;2024-01-10T09:38:09;-2.10;99.90
59067;DHT22;44854;50.838;4.438;2024-01-10T09:40:36;-2.10;99.90
59067;DHT22;44854;50.838;4.438;2024-01-10T09:43:04;-2.00;99.90
59067;DHT22;44854;50.838;4.438;2024-01-10T09:45:31;-2.00;99.90
59067;DHT22;44854;50.838;4.438;2024-01-10T09:48:00;-2.20;99.90
59067;DHT22;44854;50.838;4.438;2024-01-10T09:50:26;-2.20;99.90
59067;DHT22;44854;50.838;4.438;2024-01-10T09:53:05;-2.40;99.90
59067;DHT22;44854;50.838;4.438;2024-01-10T09:55:37;-2.30;99.90
59067;DHT22;44854;50.838;4.438;2024-01-10T09:58:07;-2.20;99.90
59067;DHT22;44854;50.838;4.438;2024-01-10T10:00:36;-2.00;99.90
59067;DHT22;44854;50.838;4.438;2024-01-10T10:03:09;-1.80;99.90
59067;DHT22;44854;50.838;4.438;2024-01-10T10:05:37;-1.70;99.90
59067;DHT22;44854;50.838;4.438;2024-01-10T10:08:07;-1.60;99.90
59067;DHT22;44854;50.838;4.438;2024-01-10T10:10:34;-1.50;99.90
59067;DHT22;44854;50.838;4.438;2024-01-10T10:13:00;-1.40;99.90
59067;DHT22;44854;50.838;4.438;2024-01-10T10:15:25;-1.50;99.90
59067;DHT22;44854;50.838;4.438;2024-01-10T10:17:54;-1.30;99.90
59067;DHT22;44854;50.838;4.438;2024-01-10T10:23:06;-1.40;99.90
59067;DHT22;44854;50.838;4.438;2024-01-10T10:25:37;-1.30;99.90
59067;DHT22;44854;50.838;4.438;2024-01-10T10:28:07;-1.20;99.90
59067;DHT22;44854;50.838;4.438;2024-01-10T10:30:34;-1.20;99.90
59067;DHT22;44854;50.838;4.438;2024-01-10T10:33:01;-1.20;99.90
59067;DHT22;44854;50.838;4.438;2024-01-10T10:35:27;-1.20;99.90
59067;DHT22;44854;50.838;4.438;2024-01-10T10:37:53;-1.10;99.90
59067;DHT22;44854;50.838;4.438;2024-01-10T10:40:20;-1.00;99.90
59067;DHT22;44854;50.838;4.438;2024-01-10T10:42:47;-1.00;99.90
59067;DHT22;44854;50.838;4.438;2024-01-10T10:45:17;-0.90;99.90
59067;DHT22;44854;50.838;4.438;2024-01-10T10:47:44;-0.90;99.90
59067;DHT22;44854;50.838;4.438;2024-01-10T10:50:20;-0.70;99.90
59067;DHT22;44854;50.838;4.438;2024-01-10T10:52:46;-0.60;99.90
59067;DHT22;44854;50.838;4.438;2024-01-10T10:55:15;-0.50;99.90
59067;DHT22;44854;50.838;4.438;2024-01-10T10:57:46;-0.50;99.90
59067;DHT22;44854;50.838;4.438;2024-01-10T11:00:19;-0.60;99.90
59067;DHT22;44854;50.838;4.438;2024-01-10T11:02:46;-0.70;99.90
59067;DHT22;44854;50.838;4.438;2024-01-10T11:05:12;-0.60;99.90
59067;DHT22;44854;50.838;4.438;2024-01-10T11:07:42;-0.60;99.90
59067;DHT22;44854;50.838;4.438;2024-01-10T11:10:14;-0.50;99.90
59067;DHT22;44854;50.838;4.438;2024-01-10T11:15:34;-0.70;99.90
59067;DHT22;44854;50.838;4.438;2024-01-10T11:21:24;-0.60;99.90
59067;DHT22;44854;50.838;4.438;2024-01-10T11:23:57;-0.60;99.90
59067;DHT22;44854;50.838;4.438;2024-01-10T11:26:24;-0.60;99.90
59067;DHT22;44854;50.838;4.438;2024-01-10T11:28:50;-0.60;99.90
59067;DHT22;44854;50.838;4.438;2024-01-10T11:31:30;-0.60;99.90
59067;DHT22;44854;50.838;4.438;2024-01-10T11:34:00;-0.50;99.90
59067;DHT22;44854;50.838;4.438;2024-01-10T11:36:26;-0.40;99.90
59067;DHT22;44854;50.838;4.438;2024-01-10T11:41:28;-0.10;99.90
59067;DHT22;44854;50.838;4.438;2024-01-10T11:46:55;-0.20;99.90
59067;DHT22;44854;50.838;4.438;2024-01-10T11:49:22;-0.10;99.90
59067;DHT22;44854;50.838;4.438;2024-01-10T11:55:49;0.00;99.90
59067;DHT22;44854;50.838;4.438;2024-01-10T11:58:17;0.20;99.90
59067;DHT22;44854;50.838;4.438;2024-01-10T12:00:43;0.20;99.90
59067;DHT22;44854;50.838;4.438;2024-01-10T12:03:11;0.00;99.90
59067;DHT22;44854;50.838;4.438;2024-01-10T12:05:38;0.10;99.90
59067;DHT22;44854;50.838;4.438;2024-01-10T12:08:09;0.10;99.90
59067;DHT22;44854;50.838;4.438;2024-01-10T12:10:35;0.20;99.90
59067;DHT22;44854;50.838;4.438;2024-01-10T12:13:05;0.30;99.90
59067;DHT22;44854;50.838;4.438;2024-01-10T12:15:31;0.30;99.90
59067;DHT22;44854;50.838;4.438;2024-01-10T12:17:57;0.40;99.90
59067;DHT22;44854;50.838;4.438;2024-01-10T12:20:23;0.50;99.90
59067;DHT22;44854;50.838;4.438;2024-01-10T12:22:48;0.50;99.90
59067;DHT22;44854;50.838;4.438;2024-01-10T12:25:14;0.30;99.90
59067;DHT22;44854;50.838;4.438;2024-01-10T12:27:40;0.50;99.90
59067;DHT22;44854;50.838;4.438;2024-01-10T12:30:06;0.40;99.90
59067;DHT22;44854;50.838;4.438;2024-01-10T12:32:42;0.30;99.90
59067;DHT22;44854;50.838;4.438;2024-01-10T12:35:08;0.40;99.90
59067;DHT22;44854;50.838;4.438;2024-01-10T12:37:34;0.50;99.90
59067;DHT22;44854;50.838;4.438;2024-01-10T12:40:00;0.70;99.90
59067;DHT22;44854;50.838;4.438;2024-01-10T12:42:25;0.70;99.90
59067;DHT22;44854;50.838;4.438;2024-01-10T12:44:51;0.70;99.90
59067;DHT22;44854;50.838;4.438;2024-01-10T12:47:20;0.80;99.90
59067;DHT22;44854;50.838;4.438;2024-01-10T12:49:46;0.80;99.90
59067;DHT22;44854;50.838;4.438;2024-01-10T12:52:57;0.80;99.90
59067;DHT22;44854;50.838;4.438;2024-01-10T12:55:26;0.40;99.90
59067;DHT22;44854;50.838;4.438;2024-01-10T12:57:53;0.60;99.90
59067;DHT22;44854;50.838;4.438;2024-01-10T13:00:19;0.70;99.90
59067;DHT22;44854;50.838;4.438;2024-01-10T13:02:45;0.70;99.90
59067;DHT22;44854;50.838;4.438;2024-01-10T13:05:11;0.80;99.90
59067;DHT22;44854;50.838;4.438;2024-01-10T13:07:38;0.70;99.90
59067;DHT22;44854;50.838;4.438;2024-01-10T13:10:04;0.80;99.90
59067;DHT22;44854;50.838;4.438;2024-01-10T13:12:30;0.80;99.90
59067;DHT22;44854;50.838;4.438;2024-01-10T13:14:55;0.90;99.90
59067;DHT22;44854;50.838;4.438;2024-01-10T13:17:22;1.00;99.90
59067;DHT22;44854;50.838;4.438;2024-01-10T13:19:47;1.00;99.90
59067;DHT22;44854;50.838;4.438;2024-01-10T13:22:16;0.90;99.90
59067;DHT22;44854;50.838;4.438;2024-01-10T13:24:47;1.00;99.90
59067;DHT22;44854;50.838;4.438;2024-01-10T13:27:13;0.90;99.90
59067;DHT22;44854;50.838;4.438;2024-01-10T13:29:39;1.00;99.90
59067;DHT22;44854;50.838;4.438;2024-01-10T13:32:06;1.10;99.90
59067;DHT22;44854;50.838;4.438;2024-01-10T13:34:32;1.20;99.90
59067;DHT22;44854;50.838;4.438;2024-01-10T13:37:16;1.30;99.90
59067;DHT22;44854;50.838;4.438;2024-01-10T13:39:42;1.30;99.90
59067;DHT22;44854;50.838;4.438;2024-01-10T13:42:08;1.20;99.90
59067;DHT22;44854;50.838;4.438;2024-01-10T13:44:36;1.40;99.90
59067;DHT22;44854;50.838;4.438;2024-01-10T13:47:01;1.40;99.90
59067;DHT22;44854;50.838;4.438;2024-01-10T13:49:29;1.40;99.90
59067;DHT22;44854;50.838;4.438;2024-01-10T13:51:54;1.30;99.90
59067;DHT22;44854;50.838;4.438;2024-01-10T13:54:25;1.30;99.90
59067;DHT22;44854;50.838;4.438;2024-01-10T13:56:51;1.40;99.90
59067;DHT22;44854;50.838;4.438;2024-01-10T13:59:17;1.40;99.90
59067;DHT22;44854;50.838;4.438;2024-01-10T14:01:42;1.40;99.90
59067;DHT22;44854;50.838;4.438;2024-01-10T14:04:08;1.40;99.90
59067;DHT22;44854;50.838;4.438;2024-01-10T14:06:34;1.40;99.90
59067;DHT22;44854;50.838;4.438;2024-01-10T14:08:59;1.50;99.90
59067;DHT22;44854;50.838;4.438;2024-01-10T14:11:25;1.40;99.90
59067;DHT22;44854;50.838;4.438;2024-01-10T14:13:52;1.50;99.90
59067;DHT22;44854;50.838;4.438;2024-01-10T14:16:19;1.60;99.90
59067;DHT22;44854;50.838;4.438;2024-01-10T14:18:49;1.50;99.90
59067;DHT22;44854;50.838;4.438;2024-01-10T14:21:21;1.40;99.90
59067;DHT22;44854;50.838;4.438;2024-01-10T14:23:47;1.50;99.90
59067;DHT22;44854;50.838;4.438;2024-01-10T14:26:16;1.50;99.90
59067;DHT22;44854;50.838;4.438;2024-01-10T14:28:42;1.40;99.90
59067;DHT22;44854;50.838;4.438;2024-01-10T14:31:09;1.40;99.90
59067;DHT22;44854;50.838;4.438;2024-01-10T14:33:39;1.40;99.90
59067;DHT22;44854;50.838;4.438;2024-01-10T14:36:05;1.50;99.90
59067;DHT22;44854;50.838;4.438;2024-01-10T14:38:31;1.40;99.90
59067;DHT22;44854;50.838;4.438;2024-01-10T14:40:56;1.50;99.90
59067;DHT22;44854;50.838;4.438;2024-01-10T14:43:22;1.40;99.90
59067;DHT22;44854;50.838;4.438;2024-01-10T14:45:48;1.50;99.90
59067;DHT22;44854;50.838;4.438;2024-01-10T14:48:14;1.50;99.90
59067;DHT22;44854;50.838;4.438;2024-01-10T14:50:40;1.60;99.90
59067;DHT22;44854;50.838;4.438;2024-01-10T14:53:05;1.60;99.90
59067;DHT22;44854;50.838;4.438;2024-01-10T14:55:31;1.80;99.90
59067;DHT22;44854;50.838;4.438;2024-01-10T14:57:57;1.80;99.90
59067;DHT22;44854;50.838;4.438;2024-01-10T15:00:22;1.80;99.90
59067;DHT22;44854;50.838;4.438;2024-01-10T15:02:48;1.80;99.90
59067;DHT22;44854;50.838;4.438;2024-01-10T15:05:14;1.70;99.90
59067;DHT22;44854;50.838;4.438;2024-01-10T15:07:40;1.60;99.90
59067;DHT22;44854;50.838;4.438;2024-01-10T15:10:06;1.60;99.90
59067;DHT22;44854;50.838;4.438;2024-01-10T15:12:33;1.60;99.90
59067;DHT22;44854;50.838;4.438;2024-01-10T15:14:58;1.70;99.90
59067;DHT22;44854;50.838;4.438;2024-01-10T15:17:27;1.60;99.90
59067;DHT22;44854;50.838;4.438;2024-01-10T15:20:05;1.60;99.90
59067;DHT22;44854;50.838;4.438;2024-01-10T15:22:32;1.70;99.90
59067;DHT22;44854;50.838;4.438;2024-01-10T15:24:58;1.70;99.90
59067;DHT22;44854;50.838;4.438;2024-01-10T15:27:25;1.70;99.90
59067;DHT22;44854;50.838;4.438;2024-01-10T15:30:14;1.60;99.90
59067;DHT22;44854;50.838;4.438;2024-01-10T15:32:48;1.60;99.90
59067;DHT22;44854;50.838;4.438;2024-01-10T15:35:15;1.60;99.90
59067;DHT22;44854;50.838;4.438;2024-01-10T15:37:41;1.60;99.90
59067;DHT22;44854;50.838;4.438;2024-01-10T15:40:11;1.60;99.90
59067;DHT22;44854;50.838;4.438;2024-01-10T15:42:37;1.70;99.90
59067;DHT22;44854;50.838;4.438;2024-01-10T15:45:16;1.60;99.90
59067;DHT22;44854;50.838;4.438;2024-01-10T15:47:45;1.60;99.90
59067;DHT22;44854;50.838;4.438;2024-01-10T15:50:22;1.60;99.90
59067;DHT22;44854;50.838;4.438;2024-01-10T15:52:57;1.50;99.90
59067;DHT22;44854;50.838;4.438;2024-01-10T15:55:26;1.60;99.90
59067;DHT22;44854;50.838;4.438;2024-01-10T16:01:19;1.40;99.90
59067;DHT22;44854;50.838;4.438;2024-01-10T16:03:45;1.40;99.90
59067;DHT22;44854;50.838;4.438;2024-01-10T16:06:11;1.50;99.90
59067;DHT22;44854;50.838;4.438;2024-01-10T16:08:37;1.60;99.90
59067;DHT22;44854;50.838;4.438;2024-01-10T16:11:02;1.60;99.90
59067;DHT22;44854;50.838;4.438;2024-01-10T16:13:28;1.60;99.90
59067;DHT22;44854;50.838;4.438;2024-01-10T16:15:54;1.40;99.90
59067;DHT22;44854;50.838;4.438;2024-01-10T16:18:28;1.10;99.90
59067;DHT22;44854;50.838;4.438;2024-01-10T16:21:07;1.20;99.90
59067;DHT22;44854;50.838;4.438;2024-01-10T16:23:53;1.20;99.90
59067;DHT22;44854;50.838;4.438;2024-01-10T16:26:19;1.30;99.90
59067;DHT22;44854;50.838;4.438;2024-01-10T16:28:44;1.20;99.90
59067;DHT22;44854;50.838;4.438;2024-01-10T16:31:11;1.30;99.90
59067;DHT22;44854;50.838;4.438;2024-01-10T16:33:36;1.20;99.90
59067;DHT22;44854;50.838;4.438;2024-01-10T16:36:04;1.20;99.90
59067;DHT22;44854;50.838;4.438;2024-01-10T16:38:30;1.10;99.90
59067;DHT22;44854;50.838;4.438;2024-01-10T16:40:56;1.20;99.90
59067;DHT22;44854;50.838;4.438;2024-01-10T16:43:25;1.20;99.90
59067;DHT22;44854;50.838;4.438;2024-01-10T16:45:52;1.20;99.90
59067;DHT22;44854;50.838;4.438;2024-01-10T16:48:18;1.10;99.90
59067;DHT22;44854;50.838;4.438;2024-01-10T16:50:44;1.10;99.90
59067;DHT22;44854;50.838;4.438;2024-01-10T16:53:10;1.10;99.90
59067;DHT22;44854;50.838;4.438;2024-01-10T16:55:36;0.90;99.90
59067;DHT22;44854;50.838;4.438;2024-01-10T16:58:59;1.00;99.90
59067;DHT22;44854;50.838;4.438;2024-01-10T17:01:26;0.90;99.90
59067;DHT22;44854;50.838;4.438;2024-01-10T17:03:52;0.90;99.90
59067;DHT22;44854;50.838;4.438;2024-01-10T17:06:20;0.90;99.90
59067;DHT22;44854;50.838;4.438;2024-01-10T17:08:46;0.90;99.90
59067;DHT22;44854;50.838;4.438;2024-01-10T17:11:13;0.80;99.90
59067;DHT22;44854;50.838;4.438;2024-01-10T17:13:38;0.60;99.90
59067;DHT22;44854;50.838;4.438;2024-01-10T17:16:04;0.80;99.90
59067;DHT22;44854;50.838;4.438;2024-01-10T17:18:30;1.00;99.90
59067;DHT22;44854;50.838;4.438;2024-01-10T17:20:56;0.80;99.90
59067;DHT22;44854;50.838;4.438;2024-01-10T17:23:21;0.80;99.90
59067;DHT22;44854;50.838;4.438;2024-01-10T17:25:47;0.90;99.90
59067;DHT22;44854;50.838;4.438;2024-01-10T17:28:13;0.80;99.90
59067;DHT22;44854;50.838;4.438;2024-01-10T17:30:39;0.80;99.90
59067;DHT22;44854;50.838;4.438;2024-01-10T17:33:04;0.80;99.90
59067;DHT22;44854;50.838;4.438;2024-01-10T17:35:34;0.70;99.90
59067;DHT22;44854;50.838;4.438;2024-01-10T17:38:00;0.70;99.90
59067;DHT22;44854;50.838;4.438;2024-01-10T17:40:26;0.70;99.90
59067;DHT22;44854;50.838;4.438;2024-01-10T17:42:52;0.70;99.90
59067;DHT22;44854;50.838;4.438;2024-01-10T17:45:18;0.60;99.90
59067;DHT22;44854;50.838;4.438;2024-01-10T17:47:43;0.60;99.90
59067;DHT22;44854;50.838;4.438;2024-01-10T17:50:10;0.60;99.90
59067;DHT22;44854;50.838;4.438;2024-01-10T17:52:36;0.70;99.90
59067;DHT22;44854;50.838;4.438;2024-01-10T17:55:01;0.60;99.90
59067;DHT22;44854;50.838;4.438;2024-01-10T17:57:27;0.60;99.90
59067;DHT22;44854;50.838;4.438;2024-01-10T18:00:14;0.50;99.90
59067;DHT22;44854;50.838;4.438;2024-01-10T18:02:40;0.50;99.90
59067;DHT22;44854;50.838;4.438;2024-01-10T18:05:06;0.40;99.90
59067;DHT22;44854;50.838;4.438;2024-01-10T18:07:32;0.40;99.90
59067;DHT22;44854;50.838;4.438;2024-01-10T18:09:57;0.40;99.90
59067;DHT22;44854;50.838;4.438;2024-01-10T18:12:23;0.40;99.90
59067;DHT22;44854;50.838;4.438;2024-01-10T18:14:49;0.40;99.90
59067;DHT22;44854;50.838;4.438;2024-01-10T18:17:18;0.30;99.90
59067;DHT22;44854;50.838;4.438;2024-01-10T18:19:44;0.30;99.90
59067;DHT22;44854;50.838;4.438;2024-01-10T18:22:10;0.20;99.90
59067;DHT22;44854;50.838;4.438;2024-01-10T18:24:36;0.20;99.90
59067;DHT22;44854;50.838;4.438;2024-01-10T18:27:02;0.10;99.90
59067;DHT22;44854;50.838;4.438;2024-01-10T18:29:27;0.20;99.90
59067;DHT22;44854;50.838;4.438;2024-01-10T18:31:53;0.10;99.90
59067;DHT22;44854;50.838;4.438;2024-01-10T18:34:22;0.10;99.90
59067;DHT22;44854;50.838;4.438;2024-01-10T18:36:48;0.10;99.90
59067;DHT22;44854;50.838;4.438;2024-01-10T18:39:14;0.10;99.90
59067;DHT22;44854;50.838;4.438;2024-01-10T18:41:40;0.20;99.90
59067;DHT22;44854;50.838;4.438;2024-01-10T18:44:08;0.20;99.90
59067;DHT22;44854;50.838;4.438;2024-01-10T18:46:33;0.10;99.90
59067;DHT22;44854;50.838;4.438;2024-01-10T18:48:59;0.20;99.90
59067;DHT22;44854;50.838;4.438;2024-01-10T18:51:25;0.10;99.90
59067;DHT22;44854;50.838;4.438;2024-01-10T18:53:51;0.10;99.90
59067;DHT22;44854;50.838;4.438;2024-01-10T18:56:16;0.10;99.90
59067;DHT22;44854;50.838;4.438;2024-01-10T18:58:43;0.00;99.90
59067;DHT22;44854;50.838;4.438;2024-01-10T19:01:09;-0.10;99.90
59067;DHT22;44854;50.838;4.438;2024-01-10T19:03:35;-0.20;99.90
59067;DHT22;44854;50.838;4.438;2024-01-10T19:06:00;-0.20;99.90
59067;DHT22;44854;50.838;4.438;2024-01-10T19:08:26;-0.20;99.90
59067;DHT22;44854;50.838;4.438;2024-01-10T19:10:52;-0.10;99.90
59067;DHT22;44854;50.838;4.438;2024-01-10T19:13:18;-0.10;99.90
59067;DHT22;44854;50.838;4.438;2024-01-10T19:15:43;-0.10;99.90
59067;DHT22;44854;50.838;4.438;2024-01-10T19:18:09;-0.10;99.90
59067;DHT22;44854;50.838;4.438;2024-01-10T19:20:35;0.00;99.90
59067;DHT22;44854;50.838;4.438;2024-01-10T19:23:01;0.00;99.90
59067;DHT22;44854;50.838;4.438;2024-01-10T19:25:27;0.00;99.90
59067;DHT22;44854;50.838;4.438;2024-01-10T19:27:56;-0.20;99.90
59067;DHT22;44854;50.838;4.438;2024-01-10T19:30:22;-0.20;99.90
59067;DHT22;44854;50.838;4.438;2024-01-10T19:32:51;-0.20;99.90
59067;DHT22;44854;50.838;4.438;2024-01-10T19:35:17;-0.20;99.90
59067;DHT22;44854;50.838;4.438;2024-01-10T19:37:46;-0.40;99.90
59067;DHT22;44854;50.838;4.438;2024-01-10T19:40:11;-0.30;99.90
59067;DHT22;44854;50.838;4.438;2024-01-10T19:42:40;-0.30;99.90
59067;DHT22;44854;50.838;4.438;2024-01-10T19:45:07;-0.40;99.90
59067;DHT22;44854;50.838;4.438;2024-01-10T19:47:39;-0.40;99.90
59067;DHT22;44854;50.838;4.438;2024-01-10T19:50:11;-0.50;99.90
59067;DHT22;44854;50.838;4.438;2024-01-10T19:52:38;-0.60;99.90
59067;DHT22;44854;50.838;4.438;2024-01-10T19:55:10;-0.60;99.90
59067;DHT22;44854;50.838;4.438;2024-01-10T19:57:36;-0.60;99.90
59067;DHT22;44854;50.838;4.438;2024-01-10T20:00:05;-0.60;99.90
59067;DHT22;44854;50.838;4.438;2024-01-10T20:02:32;-0.60;99.90
59067;DHT22;44854;50.838;4.438;2024-01-10T20:05:00;-0.60;99.90
59067;DHT22;44854;50.838;4.438;2024-01-10T20:07:26;-0.70;99.90
59067;DHT22;44854;50.838;4.438;2024-01-10T20:09:52;-0.70;99.90
59067;DHT22;44854;50.838;4.438;2024-01-10T20:12:18;-0.70;99.90
59067;DHT22;44854;50.838;4.438;2024-01-10T20:14:46;-0.60;99.90
59067;DHT22;44854;50.838;4.438;2024-01-10T20:17:14;-0.70;99.90
59067;DHT22;44854;50.838;4.438;2024-01-10T20:19:41;-0.60;99.90
59067;DHT22;44854;50.838;4.438;2024-01-10T20:22:10;-0.60;99.90
59067;DHT22;44854;50.838;4.438;2024-01-10T20:24:39;-0.60;99.90
59067;DHT22;44854;50.838;4.438;2024-01-10T20:27:04;-0.70;99.90
59067;DHT22;44854;50.838;4.438;2024-01-10T20:29:30;-0.70;99.90
59067;DHT22;44854;50.838;4.438;2024-01-10T20:32:05;-0.80;99.90
59067;DHT22;44854;50.838;4.438;2024-01-10T20:34:32;-0.80;99.90
59067;DHT22;44854;50.838;4.438;2024-01-10T20:36:58;-0.80;99.90
59067;DHT22;44854;50.838;4.438;2024-01-10T20:39:27;-0.80;99.90
59067;DHT22;44854;50.838;4.438;2024-01-10T20:41:58;-0.70;99.90
59067;DHT22;44854;50.838;4.438;2024-01-10T20:44:27;-0.80;99.90
59067;DHT22;44854;50.838;4.438;2024-01-10T20:46:53;-0.90;99.90
59067;DHT22;44854;50.838;4.438;2024-01-10T20:49:24;-0.90;99.90
59067;DHT22;44854;50.838;4.438;2024-01-10T20:51:50;-0.80;99.90
59067;DHT22;44854;50.838;4.438;2024-01-10T20:57:37;-0.90;99.90
59067;DHT22;44854;50.838;4.438;2024-01-10T21:00:03;-0.80;99.90
59067;DHT22;44854;50.838;4.438;2024-01-10T21:02:31;-0.70;99.90
59067;DHT22;44854;50.838;4.438;2024-01-10T21:04:56;-0.90;99.90
59067;DHT22;44854;50.838;4.438;2024-01-10T21:07:22;-0.90;99.90
59067;DHT22;44854;50.838;4.438;2024-01-10T21:09:48;-0.90;99.90
59067;DHT22;44854;50.838;4.438;2024-01-10T21:12:14;-0.90;99.90
59067;DHT22;44854;50.838;4.438;2024-01-10T21:14:40;-1.00;99.90
59067;DHT22;44854;50.838;4.438;2024-01-10T21:17:06;-1.00;99.90
59067;DHT22;44854;50.838;4.438;2024-01-10T21:19:34;-1.00;99.90
59067;DHT22;44854;50.838;4.438;2024-01-10T21:21:59;-1.00;99.90
59067;DHT22;44854;50.838;4.438;2024-01-10T21:24:25;-1.00;99.90
59067;DHT22;44854;50.838;4.438;2024-01-10T21:26:52;-1.00;99.90
59067;DHT22;44854;50.838;4.438;2024-01-10T21:29:18;-1.00;99.90
59067;DHT22;44854;50.838;4.438;2024-01-10T21:31:44;-1.00;99.90
59067;DHT22;44854;50.838;4.438;2024-01-10T21:34:10;-1.00;99.90
59067;DHT22;44854;50.838;4.438;2024-01-10T21:36:35;-1.00;99.90
59067;DHT22;44854;50.838;4.438;2024-01-10T21:39:04;-1.00;99.90
59067;DHT22;44854;50.838;4.438;2024-01-10T21:41:30;-1.00;99.90
59067;DHT22;44854;50.838;4.438;2024-01-10T21:43:56;-1.00;99.90
59067;DHT22;44854;50.838;4.438;2024-01-10T21:46:21;-1.10;99.90
59067;DHT22;44854;50.838;4.438;2024-01-10T21:48:48;-1.20;99.90
59067;DHT22;44854;50.838;4.438;2024-01-10T21:51:14;-1.20;99.90